createdAt,value
2022-11-16T00:01:24.222Z,7.32
2022-11-16T00:03:55.442Z,7.48
2022-11-16T00:06:28.893Z,7.53
2022-11-16T00:09:22.720Z,7.52
2022-11-16T00:12:09.177Z,7.35
2022-11-16T00:14:38.761Z,7.55
2022-11-16T00:17:19.059Z,7.57
2022-11-16T00:19:58.927Z,7.52
2022-11-16T00:22:29.174Z,7.53
2022-11-16T00:24:59.181Z,7.61
2022-11-16T00:27:39.277Z,7.61
2022-11-16T00:30:13.472Z,7.68
2022-11-16T00:32:46.059Z,7.67
2022-11-16T00:35:20.566Z,7.79
2022-11-16T00:37:53.433Z,7.71
2022-11-16T00:40:22.817Z,7.68
2022-11-16T00:42:53.757Z,7.72
2022-11-16T00:45:23.536Z,7.66
2022-11-16T00:48:00.188Z,7.64
2022-11-16T00:50:29.445Z,7.61
2022-11-16T00:52:58.505Z,7.73
2022-11-16T00:55:30.403Z,7.78
2022-11-16T00:58:00.663Z,7.75
2022-11-16T01:00:29.562Z,7.73
2022-11-16T01:03:02.470Z,7.64
2022-11-16T01:05:43.204Z,7.75
2022-11-16T01:08:14.252Z,7.84
2022-11-16T01:10:44.586Z,7.73
2022-11-16T01:13:24.199Z,7.67
2022-11-16T01:18:49.142Z,7.73
2022-11-16T01:21:22.274Z,7.84
2022-11-16T01:23:57.280Z,7.70
2022-11-16T01:31:55.974Z,7.83
2022-11-16T01:34:31.506Z,7.81
2022-11-16T01:37:01.147Z,7.95
2022-11-16T01:39:33.459Z,7.87
2022-11-16T01:49:43.024Z,7.53
2022-11-16T01:52:22.262Z,7.54
2022-11-16T01:57:47.583Z,7.69
2022-11-16T02:00:20.590Z,7.69
2022-11-16T02:02:58.283Z,7.87
2022-11-16T02:05:53.527Z,7.68
2022-11-16T02:09:02.005Z,7.85
2022-11-16T02:11:55.576Z,7.82
2022-11-16T02:14:45.265Z,7.91
2022-11-16T02:17:36.590Z,7.73
2022-11-16T02:20:34.714Z,7.73
2022-11-16T02:23:17.494Z,7.76
2022-11-16T02:26:13.455Z,7.91
2022-11-16T02:28:53.956Z,7.86
2022-11-16T02:31:31.802Z,7.79
2022-11-16T02:34:02.287Z,7.81
2022-11-16T02:36:35.492Z,7.91
2022-11-16T02:39:16.116Z,7.91
2022-11-16T02:41:51.849Z,7.75
2022-11-16T02:44:46.544Z,7.88
2022-11-16T02:47:25.805Z,7.89
2022-11-16T02:50:22.455Z,7.82
2022-11-16T02:52:54.733Z,7.93
2022-11-16T02:55:28.536Z,8.01
2022-11-16T02:58:06.370Z,7.93
2022-11-16T03:00:52.424Z,7.96
2022-11-16T03:03:42.765Z,7.97
2022-11-16T03:06:25.711Z,7.91
2022-11-16T03:09:18.440Z,7.74
2022-11-16T03:12:01.331Z,7.75
2022-11-16T03:15:09.996Z,7.89
2022-11-16T03:20:39.747Z,7.85
2022-11-16T03:23:21.531Z,7.99
2022-11-16T03:25:56.585Z,7.97
2022-11-16T03:28:59.592Z,8.01
2022-11-16T03:31:45.093Z,8.04
2022-11-16T03:34:20.069Z,8.05
2022-11-16T03:39:45.298Z,7.84
2022-11-16T03:42:17.598Z,7.91
2022-11-16T03:44:49.985Z,7.72
2022-11-16T03:47:23.778Z,7.80
2022-11-16T03:53:19.862Z,7.81
2022-11-16T03:55:51.243Z,7.87
2022-11-16T03:58:24.037Z,7.86
2022-11-16T04:01:04.710Z,8.00
2022-11-16T04:03:36.003Z,8.07
2022-11-16T04:06:24.865Z,7.92
2022-11-16T04:09:31.709Z,8.02
2022-11-16T04:12:21.510Z,7.99
2022-11-16T04:15:08.370Z,7.87
2022-11-16T04:17:57.268Z,7.85
2022-11-16T04:20:50.869Z,7.83
2022-11-16T04:23:43.245Z,7.76
2022-11-16T04:26:13.308Z,7.79
2022-11-16T04:31:55.467Z,7.91
2022-11-16T04:34:45.323Z,8.02
2022-11-16T04:37:45.581Z,8.13
2022-11-16T04:40:17.455Z,8.14
2022-11-16T04:42:58.042Z,8.11
2022-11-16T04:45:49.860Z,8.26
2022-11-16T04:48:27.167Z,8.16
2022-11-16T04:53:50.205Z,8.30
2022-11-16T04:56:20.581Z,8.28
2022-11-16T04:58:50.972Z,8.38
2022-11-16T05:01:43.926Z,8.32
2022-11-16T05:04:14.375Z,8.37
2022-11-16T05:06:44.407Z,8.35
2022-11-16T05:09:15.739Z,8.42
2022-11-16T05:11:50.012Z,8.33
2022-11-16T05:14:23.678Z,8.41
2022-11-16T05:16:52.258Z,8.46
2022-11-16T05:19:41.775Z,8.48
2022-11-16T05:22:11.365Z,8.56
2022-11-16T05:24:44.533Z,8.38
2022-11-16T05:27:24.134Z,8.47
2022-11-16T05:29:58.044Z,8.50
2022-11-16T05:32:29.672Z,8.56
2022-11-16T05:35:00.556Z,8.57
2022-11-16T05:37:53.734Z,8.58
2022-11-16T05:40:41.971Z,8.53
2022-11-16T05:51:29.815Z,8.56
2022-11-16T05:54:00.834Z,8.65
2022-11-16T05:56:31.963Z,8.67
2022-11-16T05:59:13.792Z,8.75
2022-11-16T06:01:55.987Z,8.61
2022-11-16T06:04:27.772Z,8.70
2022-11-16T06:07:00.093Z,8.83
2022-11-16T06:09:32.676Z,8.88
2022-11-16T06:12:16.298Z,8.89
2022-11-16T06:14:51.327Z,8.89
2022-11-16T06:17:22.746Z,8.89
2022-11-16T06:19:59.542Z,8.90
2022-11-16T06:22:36.691Z,8.94
2022-11-16T06:28:08.805Z,8.89
2022-11-16T06:30:41.980Z,8.94
2022-11-16T06:33:12.203Z,8.99
2022-11-16T06:35:44.257Z,8.98
2022-11-16T06:38:18.972Z,9.01
2022-11-16T06:40:57.921Z,9.05
2022-11-16T06:43:26.551Z,9.02
2022-11-16T06:45:59.847Z,9.11
2022-11-16T06:48:29.972Z,9.16
2022-11-16T06:51:04.174Z,9.04
2022-11-16T06:53:33.861Z,9.05
2022-11-16T06:56:07.430Z,9.04
2022-11-16T06:58:36.074Z,8.99
2022-11-16T07:01:17.555Z,8.91
2022-11-16T07:03:45.826Z,8.93
2022-11-16T07:06:19.148Z,8.94
2022-11-16T07:08:50.655Z,8.95
2022-11-16T07:11:20.591Z,9.05
2022-11-16T07:13:49.481Z,9.02
2022-11-16T07:16:17.917Z,9.20
2022-11-16T07:18:47.431Z,9.41
2022-11-16T07:21:18.526Z,9.32
2022-11-16T07:23:50.583Z,9.33
2022-11-16T07:26:19.494Z,9.41
2022-11-16T07:28:48.839Z,9.38
2022-11-16T07:31:17.162Z,9.48
2022-11-16T07:33:50.404Z,9.45
2022-11-16T07:36:19.899Z,9.55
2022-11-16T07:38:48.058Z,9.49
2022-11-16T07:41:19.610Z,9.51
2022-11-16T07:43:53.895Z,9.62
2022-11-16T07:46:47.776Z,9.63
2022-11-16T07:49:20.234Z,9.80
2022-11-16T07:51:49.432Z,9.75
2022-11-16T07:54:19.237Z,9.85
2022-11-16T07:57:08.315Z,9.93
2022-11-16T07:59:37.618Z,9.91
2022-11-16T08:02:07.805Z,9.91
2022-11-16T08:04:39.175Z,9.98
2022-11-16T08:07:09.168Z,9.78
2022-11-16T08:09:42.528Z,9.92
2022-11-16T08:12:12.082Z,9.81
2022-11-16T08:14:44.133Z,9.85
2022-11-16T08:17:18.120Z,10.05
2022-11-16T08:19:50.041Z,9.91
2022-11-16T08:22:20.215Z,10.11
2022-11-16T08:24:50.450Z,10.22
2022-11-16T08:27:19.600Z,10.17
2022-11-16T08:29:47.795Z,10.27
2022-11-16T08:32:17.740Z,10.24
2022-11-16T08:34:47.850Z,10.21
2022-11-16T08:37:15.822Z,10.26
2022-11-16T08:39:45.548Z,10.28
2022-11-16T08:42:15.868Z,10.43
2022-11-16T08:44:46.750Z,10.48
2022-11-16T08:47:18.101Z,10.50
2022-11-16T08:49:49.746Z,10.39
2022-11-16T08:52:18.937Z,10.50
2022-11-16T08:54:50.852Z,10.64
2022-11-16T08:57:24.990Z,10.50
2022-11-16T08:59:56.477Z,10.29
2022-11-16T09:02:26.458Z,10.35
2022-11-16T09:04:56.106Z,10.52
2022-11-16T09:07:32.421Z,10.43
2022-11-16T09:10:04.800Z,10.40
2022-11-16T09:12:59.821Z,10.41
2022-11-16T09:15:36.852Z,10.41
2022-11-16T09:18:09.037Z,10.27
2022-11-16T09:20:38.230Z,10.34
2022-11-16T09:23:11.229Z,10.36
2022-11-16T09:25:45.248Z,10.38
2022-11-16T09:28:14.124Z,10.40
2022-11-16T09:30:54.440Z,10.47
2022-11-16T09:33:23.876Z,10.58
2022-11-16T09:35:53.705Z,10.61
2022-11-16T09:38:40.631Z,10.62
2022-11-16T09:41:41.491Z,10.66
2022-11-16T09:44:51.205Z,10.62
2022-11-16T09:47:23.071Z,10.65
2022-11-16T09:50:03.169Z,10.60
2022-11-16T09:52:41.521Z,10.56
2022-11-16T09:55:22.630Z,10.70
2022-11-16T09:57:57.440Z,10.68
2022-11-16T10:00:29.411Z,10.65
2022-11-16T10:03:04.773Z,10.59
2022-11-16T10:06:13.539Z,10.65
2022-11-16T10:08:51.659Z,10.61
2022-11-16T10:11:48.798Z,10.57
2022-11-16T10:14:16.674Z,10.63
2022-11-16T10:17:33.050Z,10.69
2022-11-16T10:20:16.688Z,10.52
2022-11-16T10:23:33.547Z,10.56
2022-11-16T10:26:43.371Z,10.44
2022-11-16T10:30:00.916Z,10.21
2022-11-16T10:32:37.979Z,10.21
2022-11-16T10:35:12.383Z,10.05
2022-11-16T10:37:49.401Z,9.97
2022-11-16T10:40:30.527Z,10.07
2022-11-16T10:43:25.772Z,10.00
2022-11-16T10:46:21.201Z,10.06
2022-11-16T10:49:07.140Z,9.96
2022-11-16T10:51:35.919Z,10.02
2022-11-16T10:54:16.397Z,9.88
2022-11-16T10:56:49.698Z,9.85
2022-11-16T10:59:20.518Z,9.98
2022-11-16T11:01:57.886Z,9.89
2022-11-16T11:04:31.516Z,10.00
2022-11-16T11:07:40.517Z,9.97
2022-11-16T11:10:58.408Z,10.07
2022-11-16T11:13:29.338Z,10.01
2022-11-16T11:16:19.705Z,10.00
2022-11-16T11:18:51.623Z,9.98
2022-11-16T11:21:28.809Z,10.00
2022-11-16T11:30:06.747Z,10.17
2022-11-16T11:32:47.012Z,10.15
2022-11-16T11:35:36.808Z,10.16
2022-11-16T11:38:08.619Z,10.30
2022-11-16T11:41:09.473Z,10.28
2022-11-16T11:44:12.269Z,10.26
2022-11-16T11:47:55.556Z,10.32
2022-11-16T11:50:29.015Z,10.14
2022-11-16T11:56:33.332Z,10.29
2022-11-16T11:59:08.455Z,10.33
2022-11-16T12:02:21.092Z,10.32
2022-11-16T12:05:15.682Z,10.44
2022-11-16T12:08:20.197Z,10.39
2022-11-16T12:15:06.677Z,10.31
2022-11-16T12:21:22.168Z,10.43
2022-11-16T12:24:14.943Z,10.43
2022-11-16T12:26:53.324Z,10.37
2022-11-16T12:29:57.774Z,10.50
2022-11-16T12:33:12.548Z,10.39
2022-11-16T12:39:47.226Z,10.51
2022-11-16T12:43:00.849Z,10.29
2022-11-16T12:52:50.350Z,10.27
2022-11-16T12:59:33.160Z,10.16
2022-11-16T13:03:27.842Z,10.27
2022-11-16T13:09:34.090Z,10.21
2022-11-16T13:12:27.994Z,10.19
2022-11-16T13:15:09.021Z,10.15
2022-11-16T13:25:00.482Z,10.02
2022-11-16T13:28:33.284Z,9.92
2022-11-16T13:31:34.432Z,9.93
2022-11-16T13:34:32.258Z,10.01
2022-11-16T13:37:00.970Z,9.94
2022-11-16T13:40:01.911Z,9.80
2022-11-16T13:43:00.336Z,9.87
2022-11-16T13:45:53.573Z,9.75
2022-11-16T13:48:38.052Z,9.77
2022-11-16T13:51:21.036Z,9.86
2022-11-16T13:57:33.924Z,10.00
2022-11-16T14:00:16.806Z,9.92
2022-11-16T14:03:19.888Z,9.85
2022-11-16T14:05:56.842Z,9.87
2022-11-16T14:08:39.612Z,9.81
2022-11-16T14:11:39.957Z,9.92
2022-11-16T14:15:09.095Z,9.82
2022-11-16T14:18:25.394Z,9.80
2022-11-16T14:21:22.314Z,9.78
2022-11-16T14:24:13.053Z,9.70
2022-11-16T14:27:30.977Z,9.71
2022-11-16T14:30:30.611Z,9.64
2022-11-16T14:33:09.038Z,9.80
2022-11-16T14:36:01.634Z,10.01
2022-11-16T14:38:43.891Z,9.94
2022-11-16T14:41:42.021Z,9.99
2022-11-16T14:44:31.794Z,10.02
2022-11-16T14:47:06.905Z,10.01
2022-11-16T14:49:50.810Z,9.97
2022-11-16T14:52:45.321Z,9.92
2022-11-16T14:55:30.687Z,9.86
2022-11-16T14:58:24.164Z,9.95
2022-11-16T15:01:05.866Z,9.90
2022-11-16T15:04:05.067Z,9.74
2022-11-16T15:06:49.296Z,9.63
2022-11-16T15:09:39.919Z,9.78
2022-11-16T15:12:43.854Z,9.83
2022-11-16T15:15:22.483Z,9.72
2022-11-16T15:18:08.322Z,9.66
2022-11-16T15:24:15.435Z,9.49
2022-11-16T15:26:44.159Z,9.38
2022-11-16T15:29:22.911Z,9.51
2022-11-16T15:31:52.230Z,9.44
2022-11-16T15:34:25.073Z,9.59
2022-11-16T15:37:02.344Z,9.67
2022-11-16T15:39:36.490Z,9.54
2022-11-16T15:42:08.882Z,9.44
2022-11-16T15:44:40.536Z,9.46
2022-11-16T15:50:02.848Z,9.65
2022-11-16T15:53:06.728Z,9.47
2022-11-16T15:55:40.687Z,9.73
2022-11-16T15:58:41.343Z,9.67
2022-11-16T16:01:12.253Z,9.72
2022-11-16T16:04:10.127Z,9.75
2022-11-16T16:06:58.296Z,9.76
2022-11-16T16:09:41.932Z,9.64
2022-11-16T16:12:22.573Z,9.65
2022-11-16T16:14:54.315Z,9.70
2022-11-16T16:17:32.333Z,9.80
2022-11-16T16:20:09.357Z,9.70
2022-11-16T16:22:40.923Z,9.79
2022-11-16T16:25:36.010Z,9.77
2022-11-16T16:28:08.599Z,9.78
2022-11-16T16:30:45.464Z,9.78
2022-11-16T16:33:22.866Z,9.91
2022-11-16T16:35:53.039Z,9.78
2022-11-16T16:38:31.293Z,9.66
2022-11-16T16:41:05.106Z,9.75
2022-11-16T16:43:37.364Z,9.63
2022-11-16T16:46:09.232Z,9.62
2022-11-16T16:48:44.746Z,9.49
2022-11-16T16:51:18.448Z,9.56
2022-11-16T16:53:54.158Z,9.53
2022-11-16T16:56:24.034Z,9.61
2022-11-16T16:58:55.489Z,9.48
2022-11-16T17:01:30.720Z,9.49
2022-11-16T17:03:59.402Z,9.47
2022-11-16T17:06:27.561Z,9.52
2022-11-16T17:08:56.571Z,9.47
2022-11-16T17:11:25.730Z,9.62
2022-11-16T17:13:58.788Z,9.68
2022-11-16T17:16:41.190Z,9.68
2022-11-16T17:19:24.619Z,9.69
2022-11-16T17:21:56.086Z,9.67
2022-11-16T17:24:25.119Z,9.73
2022-11-16T17:26:55.851Z,9.66
2022-11-16T17:29:25.690Z,9.66
2022-11-16T17:31:55.688Z,9.77
2022-11-16T17:34:23.741Z,9.73
2022-11-16T17:36:51.970Z,9.82
2022-11-16T17:39:21.213Z,9.68
2022-11-16T17:41:51.513Z,9.83
2022-11-16T17:44:22.024Z,9.76
2022-11-16T17:46:50.259Z,9.85
2022-11-16T17:49:18.675Z,9.67
2022-11-16T17:51:47.175Z,9.71
2022-11-16T17:54:15.270Z,9.62
2022-11-16T17:56:43.806Z,9.76
2022-11-16T17:59:14.242Z,9.75
2022-11-16T18:01:42.266Z,9.77
2022-11-16T18:04:10.620Z,9.65
2022-11-16T18:06:40.148Z,9.61
2022-11-16T18:09:08.110Z,9.67
2022-11-16T18:11:39.657Z,9.75
2022-11-16T18:14:10.958Z,9.53
2022-11-16T18:16:42.670Z,9.48
2022-11-16T18:19:18.271Z,9.53
2022-11-16T18:21:49.195Z,9.63
2022-11-16T18:24:19.582Z,9.50
2022-11-16T18:26:48.335Z,9.56
2022-11-16T18:29:18.998Z,9.71
2022-11-16T18:31:49.203Z,9.48
2022-11-16T18:34:17.160Z,9.56
2022-11-16T18:36:49.290Z,9.47
2022-11-16T18:39:19.421Z,9.54
2022-11-16T18:41:54.959Z,9.52
2022-11-16T18:44:23.618Z,9.48
2022-11-16T18:46:53.074Z,9.58
2022-11-16T18:49:21.234Z,9.73
2022-11-16T18:51:54.533Z,9.54
2022-11-16T18:54:22.197Z,9.63
2022-11-16T18:56:53.634Z,9.49
2022-11-16T18:59:22.433Z,9.49
2022-11-16T19:01:50.697Z,9.74
2022-11-16T19:04:18.517Z,9.59
2022-11-16T19:06:47.875Z,9.67
2022-11-16T19:09:22.304Z,9.76
2022-11-16T19:11:55.383Z,9.42
2022-11-16T19:14:23.948Z,9.49
2022-11-16T19:16:56.941Z,9.55
2022-11-16T19:19:31.681Z,9.47
2022-11-16T19:21:59.304Z,9.48
2022-11-16T19:24:32.235Z,9.48
2022-11-16T19:27:00.216Z,9.27
2022-11-16T19:29:27.992Z,9.41
2022-11-16T19:31:56.002Z,9.38
2022-11-16T19:34:25.795Z,9.35
2022-11-16T19:36:55.497Z,9.20
2022-11-16T19:39:23.371Z,9.28
2022-11-16T19:41:51.002Z,9.21
2022-11-16T19:44:18.977Z,9.14
2022-11-16T19:46:47.347Z,9.20
2022-11-16T19:49:20.283Z,9.04
2022-11-16T19:51:49.026Z,9.28
2022-11-16T19:54:17.191Z,9.28
2022-11-16T19:56:49.282Z,9.26
2022-11-16T19:59:19.762Z,9.27
2022-11-16T20:01:47.382Z,9.23
2022-11-16T20:04:16.068Z,9.33
2022-11-16T20:06:45.260Z,9.34
2022-11-16T20:09:15.516Z,9.12
2022-11-16T20:11:49.462Z,9.22
2022-11-16T20:14:19.455Z,9.24
2022-11-16T20:16:48.352Z,9.34
2022-11-16T20:19:20.150Z,9.21
2022-11-16T20:21:48.546Z,9.16
2022-11-16T20:24:17.991Z,9.14
2022-11-16T20:26:49.022Z,9.12
2022-11-16T20:29:21.804Z,9.24
2022-11-16T20:31:49.728Z,9.17
2022-11-16T20:34:21.374Z,9.25
2022-11-16T20:36:51.580Z,9.27
2022-11-16T20:39:25.165Z,9.14
2022-11-16T20:41:53.714Z,9.22
2022-11-16T20:44:22.750Z,8.96
2022-11-16T20:46:54.183Z,8.97
2022-11-16T20:49:21.865Z,9.01
2022-11-16T20:51:51.368Z,9.02
2022-11-16T20:54:19.236Z,9.20
2022-11-16T20:56:49.876Z,9.02
2022-11-16T20:59:18.073Z,9.01
2022-11-16T21:01:48.326Z,8.99
2022-11-16T21:04:17.751Z,8.82
2022-11-16T21:06:45.500Z,8.95
2022-11-16T21:09:15.767Z,9.05
2022-11-16T21:12:01.865Z,9.02
2022-11-16T21:14:29.796Z,9.00
2022-11-16T21:16:57.488Z,9.07
2022-11-16T21:19:25.183Z,9.04
2022-11-16T21:21:53.946Z,9.05
2022-11-16T21:24:24.972Z,8.95
2022-11-16T21:26:52.676Z,8.90
2022-11-16T21:29:26.079Z,8.87
2022-11-16T21:31:53.872Z,8.96
2022-11-16T21:34:23.765Z,8.88
2022-11-16T21:36:52.572Z,8.94
2022-11-16T21:39:20.276Z,8.94
2022-11-16T21:41:48.573Z,8.89
2022-11-16T21:44:16.937Z,8.90
2022-11-16T21:46:45.657Z,9.07
2022-11-16T21:49:13.318Z,9.04
2022-11-16T21:51:41.445Z,9.05
2022-11-16T21:54:09.317Z,8.98
2022-11-16T21:56:37.832Z,9.05
2022-11-16T21:59:06.536Z,9.14
2022-11-16T22:01:56.608Z,9.08
2022-11-16T22:04:43.122Z,9.13
2022-11-16T22:07:33.841Z,9.20
2022-11-16T22:10:05.219Z,9.15
2022-11-16T22:12:35.898Z,9.18
2022-11-16T22:15:11.179Z,9.21
2022-11-16T22:17:45.458Z,9.20
2022-11-16T22:20:17.922Z,9.25
2022-11-16T22:22:48.187Z,9.16
2022-11-16T22:25:21.787Z,9.30
2022-11-16T22:28:19.084Z,9.26
2022-11-16T22:30:45.068Z,9.23
2022-11-16T22:33:16.865Z,9.19
2022-11-16T22:35:47.620Z,9.13
2022-11-16T22:38:16.943Z,9.14
2022-11-16T22:40:51.217Z,9.08
2022-11-16T22:43:21.576Z,9.13
2022-11-16T22:45:51.068Z,9.16
2022-11-16T22:48:19.835Z,9.13
2022-11-16T22:50:48.738Z,9.18
2022-11-16T22:53:18.851Z,9.12
2022-11-16T22:55:52.348Z,9.12
2022-11-16T22:58:22.850Z,9.08
2022-11-16T23:00:54.208Z,9.07
2022-11-16T23:03:23.019Z,9.12
2022-11-16T23:05:55.583Z,9.11
2022-11-16T23:08:29.230Z,9.10
2022-11-16T23:11:43.440Z,9.03
2022-11-16T23:14:38.788Z,9.16
2022-11-16T23:17:07.245Z,9.12
2022-11-16T23:19:55.288Z,9.10
2022-11-16T23:22:43.339Z,9.23
2022-11-16T23:25:32.351Z,9.19
2022-11-16T23:28:13.290Z,9.32
2022-11-16T23:30:45.616Z,9.28
2022-11-16T23:33:15.420Z,9.40
2022-11-16T23:35:45.809Z,9.51
2022-11-16T23:38:14.998Z,9.51
2022-11-16T23:40:47.882Z,9.45
2022-11-16T23:43:36.658Z,9.36
2022-11-16T23:46:08.102Z,9.41
2022-11-16T23:48:38.552Z,9.46
2022-11-16T23:51:07.543Z,9.38
2022-11-16T23:53:38.921Z,9.49
2022-11-16T23:56:08.271Z,9.50
2022-11-16T23:58:37.847Z,9.50
